Time;durP1;ratioP1;P1;durP2;ratioP2;P2;SDS_P1;SDS_P2;PMS_P1;PMS_P2;Temp;Humidity;BMP_temperature;BMP_pressure;BME280_temperature;BME280_humidity;BME280_pressure;Samples;Min_cycle;Max_cycle;Signal;HPM_P1;HPM_P2
2023/04/28 00:02:09;;;;;;;26.37;18.13;;;12.30;7.20;;;;;;5003007;28;20175;-93
2023/04/28 00:04:35;;;;;;;28.47;18.70;;;12.40;9.40;;;;;;5000853;28;20179;-91
2023/04/28 00:07:01;;;;;;;25.13;18.30;;;12.50;9.10;;;;;;5017082;28;20200;-91
2023/04/28 00:09:27;;;;;;;25.63;21.37;;;12.40;11.20;;;;;;5018736;28;20175;-89
2023/04/28 00:11:52;;;;;;;25.57;19.70;;;12.60;9.60;;;;;;5011819;28;20198;-93
2023/04/28 00:14:25;;;;;;;25.30;19.07;;;12.70;7.70;;;;;;4998550;28;20183;-93
2023/04/28 00:16:51;;;;;;;22.57;19.13;;;12.80;5.10;;;;;;4998087;28;20214;-93
2023/04/28 00:19:17;;;;;;;26.03;20.80;;;12.80;5.20;;;;;;4999055;28;20321;-94
2023/04/28 00:21:46;;;;;;;25.70;20.17;;;12.90;5.40;;;;;;4997062;28;20270;-92
2023/04/28 00:24:12;;;;;;;25.53;20.17;;;12.80;7.90;;;;;;5000233;28;20166;-93
2023/04/28 00:26:40;;;;;;;25.23;20.43;;;12.80;11.80;;;;;;5009215;28;20182;-90
2023/04/28 00:29:16;;;;;;;24.73;21.77;;;12.80;14.70;;;;;;5017529;28;20170;-93
2023/04/28 00:35:03;;;;;;;29.10;21.23;;;12.90;14.10;;;;;;5007056;28;20500;-89
2023/04/28 00:37:34;;;;;;;28.80;22.07;;;12.80;18.80;;;;;;5020185;28;20200;-91
2023/04/28 00:40:01;;;;;;;27.23;21.20;;;12.50;27.50;;;;;;5018225;28;20169;-93
2023/04/28 00:42:27;;;;;;;27.73;22.87;;;12.30;34.80;;;;;;5012674;28;20204;-93
2023/04/28 00:44:52;;;;;;;29.17;22.20;;;12.30;36.80;;;;;;5017234;28;20163;-91
2023/04/28 00:47:19;;;;;;;27.23;21.40;;;12.30;36.30;;;;;;5006310;28;20817;-93
2023/04/28 00:49:46;;;;;;;29.83;23.03;;;12.30;38.00;;;;;;4992431;28;20179;-90
2023/04/28 00:52:12;;;;;;;29.20;21.87;;;12.30;38.70;;;;;;5017666;28;20191;-94
2023/04/28 00:54:46;;;;;;;31.70;23.63;;;12.20;40.70;;;;;;5012642;28;20184;-94
2023/04/28 00:57:18;;;;;;;28.80;20.63;;;12.20;43.80;;;;;;5003108;28;20221;-94
2023/04/28 00:59:47;;;;;;;27.13;22.07;;;12.20;40.90;;;;;;5008296;28;20259;-94
2023/04/28 01:02:21;;;;;;;30.37;21.67;;;12.10;44.60;;;;;;4997891;28;20188;-92
2023/04/28 01:04:50;;;;;;;29.20;22.37;;;12.30;43.60;;;;;;4996761;28;20639;-93
2023/04/28 01:07:21;;;;;;;27.87;21.93;;;12.40;43.40;;;;;;4996143;28;20175;-93
2023/04/28 01:09:47;;;;;;;27.57;21.73;;;12.50;42.20;;;;;;4998792;28;20267;-93
2023/04/28 01:12:13;;;;;;;29.77;23.80;;;12.50;41.70;;;;;;5010950;28;20168;-94
2023/04/28 01:14:39;;;;;;;30.90;23.07;;;12.60;41.30;;;;;;5016040;28;20183;-93
2023/04/28 01:17:06;;;;;;;28.20;22.73;;;12.70;41.60;;;;;;5010329;28;20213;-91
2023/04/28 01:19:44;;;;;;;27.07;22.07;;;12.60;44.90;;;;;;4998023;28;20651;-93
2023/04/28 01:22:14;;;;;;;26.77;22.23;;;12.40;47.90;;;;;;4997621;28;20194;-94
2023/04/28 01:24:40;;;;;;;28.83;23.27;;;12.20;51.70;;;;;;5001883;28;20170;-93
2023/04/28 01:27:06;;;;;;;29.67;23.57;;;12.00;56.10;;;;;;5017918;28;20174;-92
2023/04/28 01:29:36;;;;;;;29.13;23.13;;;11.80;57.30;;;;;;5018380;28;20167;-89
2023/04/28 01:32:07;;;;;;;29.90;23.67;;;11.80;60.70;;;;;;5016548;28;20239;-93
2023/04/28 01:34:33;;;;;;;30.97;24.67;;;11.80;63.00;;;;;;5014415;28;20423;-91
2023/04/28 01:36:58;;;;;;;28.67;23.70;;;11.70;68.90;;;;;;5007909;28;20198;-93
2023/04/28 01:39:25;;;;;;;30.17;23.77;;;11.70;69.70;;;;;;5004958;28;20235;-90
2023/04/28 01:41:51;;;;;;;31.30;25.13;;;11.60;74.60;;;;;;5018815;28;20171;-89
2023/04/28 01:44:17;;;;;;;32.40;25.33;;;11.50;77.30;;;;;;5016288;28;20171;-91
2023/04/28 01:46:43;;;;;;;31.80;25.57;;;11.40;82.20;;;;;;5016890;28;20159;-93
2023/04/28 01:49:34;;;;;;;31.87;25.40;;;11.40;86.00;;;;;;4998853;28;20263;-93
2023/04/28 01:52:03;;;;;;;31.37;25.70;;;11.40;84.90;;;;;;4996507;28;20163;-94
2023/04/28 01:54:45;;;;;;;34.60;27.17;;;11.40;87.60;;;;;;4994699;28;20685;-94
2023/04/28 01:57:12;;;;;;;31.57;25.03;;;11.30;87.70;;;;;;4994035;28;20198;-92
2023/04/28 01:59:38;;;;;;;33.43;25.97;;;11.40;88.20;;;;;;5008461;28;20247;-92
2023/04/28 02:02:17;;;;;;;31.87;25.50;;;11.50;87.90;;;;;;5011823;28;20475;-93
2023/04/28 02:04:44;;;;;;;32.97;26.03;;;11.40;88.90;;;;;;4995845;28;20194;-93
2023/04/28 02:07:13;;;;;;;34.60;26.77;;;11.30;90.00;;;;;;4996313;28;20187;-94
2023/04/28 02:09:40;;;;;;;32.67;27.03;;;11.30;90.90;;;;;;4995473;28;20178;-93
2023/04/28 02:12:07;;;;;;;33.93;27.47;;;11.30;92.60;;;;;;4994928;28;20692;-94
2023/04/28 02:14:33;;;;;;;35.73;28.20;;;11.40;93.40;;;;;;5011773;28;20159;-90
2023/04/28 02:17:01;;;;;;;35.03;27.77;;;11.50;93.90;;;;;;5017559;28;20221;-93
2023/04/28 02:19:30;;;;;;;34.83;28.27;;;11.70;93.30;;;;;;5013687;28;20172;-94
2023/04/28 02:21:56;;;;;;;33.10;27.00;;;12.00;91.30;;;;;;4997152;28;20204;-93
2023/04/28 02:24:38;;;;;;;;;;;;;;;;;;;;;
2023/04/28 02:27:05;;;;;;;34.30;25.90;;;12.10;89.50;;;;;;4998037;28;20342;-93
2023/04/28 02:29:31;;;;;;;32.30;26.17;;;12.20;89.90;;;;;;4994360;28;20168;-94
2023/04/28 02:32:00;;;;;;;31.43;27.20;;;12.20;89.40;;;;;;5000440;28;20186;-93
2023/04/28 02:34:26;;;;;;;30.93;25.30;;;12.30;88.40;;;;;;5015086;28;20267;-93
2023/04/28 02:36:55;;;;;;;31.77;24.53;;;12.30;88.10;;;;;;4999791;28;20214;-93
2023/04/28 02:39:25;;;;;;;30.97;25.50;;;12.50;87.80;;;;;;5007228;28;20164;-92
2023/04/28 02:41:55;;;;;;;33.57;25.63;;;12.50;88.10;;;;;;5011696;28;20177;-92
2023/04/28 02:44:33;;;;;;;32.90;25.67;;;12.40;90.00;;;;;;5013918;28;20183;-91
2023/04/28 02:47:00;;;;;;;31.43;26.20;;;12.50;89.10;;;;;;5009281;28;20182;-93
2023/04/28 02:49:29;;;;;;;30.03;23.80;;;12.30;90.30;;;;;;5000206;28;20177;-89
2023/04/28 02:51:55;;;;;;;31.60;24.60;;;12.10;92.10;;;;;;4997449;28;20627;-93
2023/04/28 02:54:28;;;;;;;29.20;25.77;;;12.20;93.40;;;;;;4997579;28;20200;-90
2023/04/28 02:56:55;;;;;;;30.10;25.23;;;12.20;94.00;;;;;;4996575;28;20202;-94
2023/04/28 02:59:30;;;;;;;33.37;26.40;;;12.00;95.60;;;;;;4997603;28;20265;-92
2023/04/28 03:01:56;;;;;;;29.87;26.60;;;12.00;97.80;;;;;;4997888;28;20183;-93
2023/04/28 03:04:22;;;;;;;34.47;26.60;;;12.20;97.90;;;;;;4997541;28;20180;-91
2023/04/28 03:06:50;;;;;;;28.30;24.13;;;12.20;97.60;;;;;;4995988;28;20239;-91
2023/04/28 03:09:16;;;;;;;33.80;24.93;;;12.30;97.30;;;;;;4994793;28;20171;-89
2023/04/28 03:11:41;;;;;;;31.93;25.47;;;12.40;97.40;;;;;;5014986;28;20184;-89
2023/04/28 03:14:12;;;;;;;34.73;26.83;;;12.50;96.50;;;;;;5019128;28;20189;-90
2023/04/28 03:16:38;;;;;;;32.77;27.47;;;12.20;96.30;;;;;;5002868;28;20211;-93
2023/04/28 03:19:04;;;;;;;33.10;26.87;;;12.10;97.70;;;;;;4999616;28;20680;-93
2023/04/28 03:21:33;;;;;;;34.00;27.90;;;12.10;97.40;;;;;;4997457;28;20234;-93
2023/04/28 03:24:03;;;;;;;31.50;26.40;;;12.00;98.50;;;;;;4997907;28;20176;-93
2023/04/28 03:26:29;;;;;;;37.87;28.83;;;11.80;99.90;;;;;;4996675;28;20179;-93
2023/04/28 03:28:55;;;;;;;34.20;27.57;;;11.60;99.90;;;;;;4996698;28;20181;-94
2023/04/28 03:31:24;;;;;;;36.03;28.37;;;11.50;99.90;;;;;;4997283;28;20180;-93
2023/04/28 03:33:51;;;;;;;34.80;28.27;;;11.50;99.90;;;;;;4996971;28;20175;-93
2023/04/28 03:36:17;;;;;;;35.57;29.50;;;11.50;99.90;;;;;;4997277;28;20252;-93
2023/04/28 03:38:43;;;;;;;36.17;28.50;;;11.50;99.90;;;;;;4997462;28;20183;-93
2023/04/28 03:41:10;;;;;;;37.07;29.50;;;11.60;99.90;;;;;;5000323;28;20607;-94
2023/04/28 03:43:36;;;;;;;38.37;30.40;;;11.50;99.90;;;;;;5001829;28;20206;-88
2023/04/28 03:46:03;;;;;;;37.93;30.57;;;11.50;99.90;;;;;;5010697;28;20179;-90
2023/04/28 03:48:40;;;;;;;37.57;30.03;;;11.50;99.90;;;;;;5013171;28;20191;-89
2023/04/28 03:51:09;;;;;;;36.90;30.03;;;11.60;99.90;;;;;;5012260;28;20178;-89
2023/04/28 03:53:49;;;;;;;35.33;30.43;;;11.50;99.90;;;;;;5010632;28;20526;-89
2023/04/28 03:56:22;;;;;;;37.50;29.93;;;11.50;99.90;;;;;;5011644;28;20173;-90
2023/04/28 03:58:55;;;;;;;37.37;30.50;;;11.60;99.90;;;;;;5006492;28;20183;-90
2023/04/28 04:01:21;;;;;;;39.93;32.57;;;11.70;99.90;;;;;;5015821;28;20742;-93
2023/04/28 04:03:52;;;;;;;38.13;30.40;;;11.80;99.90;;;;;;5019895;28;20250;-89
2023/04/28 04:06:24;;;;;;;38.23;29.90;;;11.90;99.90;;;;;;5018145;28;20297;-91
2023/04/28 04:08:55;;;;;;;37.80;30.20;;;11.90;99.90;;;;;;5013126;28;20179;-95
2023/04/28 04:11:27;;;;;;;35.60;29.20;;;11.70;99.90;;;;;;5000754;28;20164;-93
2023/04/28 04:13:56;;;;;;;37.57;29.57;;;11.60;99.90;;;;;;4997286;28;20187;-93
2023/04/28 04:16:27;;;;;;;40.70;30.03;;;11.60;99.90;;;;;;5015830;28;20201;-93
2023/04/28 04:18:53;;;;;;;38.10;31.40;;;11.50;99.90;;;;;;5015161;28;20162;-89
2023/04/28 04:21:22;;;;;;;38.67;31.37;;;11.60;99.90;;;;;;5004823;28;20167;-93
2023/04/28 04:23:51;;;;;;;38.73;31.57;;;11.50;99.90;;;;;;4997260;28;20163;-93
2023/04/28 04:26:17;;;;;;;35.57;30.87;;;11.50;99.90;;;;;;4998067;28;20642;-93
2023/04/28 04:28:43;;;;;;;39.00;32.57;;;11.50;99.90;;;;;;5012998;28;20163;-93
2023/04/28 04:31:18;;;;;;;41.60;31.63;;;11.60;99.90;;;;;;5008970;28;20230;-93
2023/04/28 04:34:06;;;;;;;36.63;31.97;;;11.40;99.90;;;;;;5002276;28;20167;-93
2023/04/28 04:36:45;;;;;;;40.87;33.13;;;11.50;99.90;;;;;;5000228;28;20271;-88
2023/04/28 04:39:17;;;;;;;43.30;32.67;;;11.40;99.90;;;;;;5003801;28;20547;-92
2023/04/28 04:41:44;;;;;;;39.60;32.23;;;11.50;99.90;;;;;;5016668;28;20147;-92
2023/04/28 04:44:13;;;;;;;38.33;32.03;;;11.50;99.90;;;;;;5013548;28;20178;-93
2023/04/28 04:46:48;;;;;;;39.73;31.60;;;11.50;99.90;;;;;;5012447;28;20178;-93
2023/04/28 04:49:14;;;;;;;37.07;30.77;;;11.50;99.90;;;;;;5007264;28;20174;-89
2023/04/28 04:51:42;;;;;;;36.73;31.40;;;11.60;99.90;;;;;;5002343;28;20179;-88
2023/04/28 04:54:24;;;;;;;36.00;31.03;;;11.50;99.90;;;;;;5015515;28;20631;-91
2023/04/28 04:56:53;;;;;;;39.67;32.73;;;11.70;99.90;;;;;;5017480;28;20198;-89
2023/04/28 04:59:30;;;;;;;37.37;32.67;;;11.80;99.90;;;;;;5019057;28;20184;-90
2023/04/28 05:02:00;;;;;;;39.83;32.23;;;11.80;99.90;;;;;;5016714;28;20763;-91
2023/04/28 05:04:40;;;;;;;47.03;36.63;;;11.80;99.90;;;;;;5015947;28;20176;-92
2023/04/28 05:07:13;;;;;;;43.37;34.27;;;11.90;99.90;;;;;;5005186;28;20175;-93
2023/04/28 05:09:40;;;;;;;43.53;34.77;;;12.10;99.90;;;;;;4998150;28;20171;-91
2023/04/28 05:12:06;;;;;;;40.87;34.13;;;12.30;99.90;;;;;;4998488;28;20261;-93
2023/04/28 05:14:32;;;;;;;43.47;35.97;;;12.50;99.90;;;;;;4995371;28;20198;-92
2023/04/28 05:17:02;;;;;;;41.33;34.80;;;12.60;99.90;;;;;;4996211;28;20289;-91
2023/04/28 05:19:28;;;;;;;41.37;34.97;;;12.70;99.90;;;;;;5000361;28;20199;-93
2023/04/28 05:22:00;;;;;;;43.80;35.27;;;12.90;99.90;;;;;;4998271;28;20176;-90
2023/04/28 05:24:34;;;;;;;43.50;35.40;;;12.90;99.90;;;;;;5005708;28;20168;-94
2023/04/28 05:27:01;;;;;;;42.43;33.50;;;13.00;99.90;;;;;;4999958;28;20716;-94
2023/04/28 05:29:32;;;;;;;35.90;29.53;;;13.10;99.90;;;;;;5016227;28;20177;-90
2023/04/28 05:32:01;;;;;;;32.87;26.30;;;13.10;99.90;;;;;;5017728;28;20181;-88
2023/04/28 05:34:28;;;;;;;32.87;26.93;;;13.10;99.90;;;;;;5016858;28;20196;-94
2023/04/28 05:37:00;;;;;;;33.50;26.87;;;13.10;99.90;;;;;;5011320;28;20220;-93
2023/04/28 05:39:29;;;;;;;35.70;26.83;;;13.20;99.90;;;;;;5005631;28;20271;-94
2023/04/28 05:42:00;;;;;;;34.17;26.97;;;13.40;99.90;;;;;;4983735;28;20205;-93
2023/04/28 05:44:30;;;;;;;32.90;26.23;;;13.40;99.90;;;;;;4996309;28;20187;-91
2023/04/28 05:46:59;;;;;;;31.57;25.00;;;13.40;99.90;;;;;;4998411;28;20659;-91
2023/04/28 05:49:26;;;;;;;30.93;24.20;;;13.50;99.90;;;;;;5010160;28;20176;-92
2023/04/28 05:51:54;;;;;;;27.50;22.13;;;13.50;99.90;;;;;;5012415;28;20185;-92
2023/04/28 05:54:20;;;;;;;24.80;20.97;;;13.50;99.90;;;;;;5014933;28;20190;-90
2023/04/28 05:56:47;;;;;;;22.67;20.30;;;13.50;99.90;;;;;;5004096;28;20239;-92
2023/04/28 05:59:15;;;;;;;23.07;18.47;;;13.50;99.90;;;;;;4997281;28;20177;-90
2023/04/28 06:01:47;;;;;;;21.97;17.63;;;13.60;99.90;;;;;;5013119;28;20180;-90
2023/04/28 06:04:13;;;;;;;17.43;15.53;;;13.80;99.90;;;;;;5012866;28;20179;-90
2023/04/28 06:06:40;;;;;;;15.73;13.50;;;13.90;99.90;;;;;;5017253;28;20168;-92
2023/04/28 06:09:12;;;;;;;13.73;12.17;;;14.00;99.90;;;;;;5010246;28;20277;-92
2023/04/28 06:11:46;;;;;;;13.90;10.70;;;14.10;99.90;;;;;;5012272;28;20177;-93
2023/04/28 06:14:12;;;;;;;12.30;11.10;;;14.20;99.90;;;;;;5002659;28;20587;-94
2023/04/28 06:16:41;;;;;;;12.90;10.80;;;14.40;99.90;;;;;;5002189;28;20236;-93
2023/04/28 06:19:10;;;;;;;11.57;10.33;;;14.40;99.90;;;;;;5012075;28;20167;-92
2023/04/28 06:22:16;;;;;;;11.57;10.40;;;14.40;99.90;;;;;;5016072;28;20546;-96
2023/04/28 06:25:00;;;;;;;11.13;10.00;;;14.50;99.90;;;;;;5020369;28;20175;-92
2023/04/28 06:27:28;;;;;;;10.67;9.57;;;14.50;99.90;;;;;;5017221;28;20183;-92
2023/04/28 06:30:37;;;;;;;10.40;9.40;;;14.60;99.90;;;;;;5013552;28;20680;-94
2023/04/28 06:33:09;;;;;;;8.57;7.67;;;14.60;99.90;;;;;;5021073;28;20171;-92
2023/04/28 06:35:37;;;;;;;8.90;8.00;;;14.50;99.90;;;;;;5020107;28;20242;-92
2023/04/28 06:38:07;;;;;;;9.13;8.23;;;14.60;99.90;;;;;;5013513;28;20206;-94
2023/04/28 06:40:39;;;;;;;9.10;7.60;;;14.60;99.90;;;;;;5015930;28;20159;-93
2023/04/28 06:43:08;;;;;;;8.00;7.17;;;14.70;99.90;;;;;;5015410;28;20254;-91
2023/04/28 06:45:36;;;;;;;8.30;7.47;;;14.70;99.90;;;;;;5005410;28;20172;-91
2023/04/28 06:48:09;;;;;;;7.10;6.40;;;14.70;99.90;;;;;;5006048;28;20155;-93
2023/04/28 06:50:37;;;;;;;7.57;6.77;;;14.80;99.90;;;;;;5001414;28;20629;-93
2023/04/28 06:53:03;;;;;;;8.33;6.87;;;14.80;99.90;;;;;;4998081;28;20217;-94
2023/04/28 06:55:32;;;;;;;10.57;6.43;;;14.80;99.90;;;;;;5001295;28;20240;-92
2023/04/28 06:57:58;;;;;;;7.40;6.57;;;14.90;99.90;;;;;;4985666;28;20219;-93
2023/04/28 07:00:24;;;;;;;6.70;6.00;;;14.90;99.90;;;;;;4998812;28;20182;-94
2023/04/28 07:03:07;;;;;;;6.50;5.67;;;14.90;99.90;;;;;;4998645;28;20181;-93
2023/04/28 07:05:33;;;;;;;7.90;6.30;;;15.00;99.90;;;;;;4999095;28;20167;-92
2023/04/28 07:07:59;;;;;;;6.43;5.83;;;15.00;99.90;;;;;;4998716;28;20175;-93
2023/04/28 07:10:27;;;;;;;6.80;5.80;;;15.00;99.90;;;;;;4998092;28;20262;-93
2023/04/28 07:12:53;;;;;;;8.20;6.40;;;15.00;99.90;;;;;;4999603;28;20225;-93
2023/04/28 07:15:19;;;;;;;6.40;5.37;;;15.00;99.90;;;;;;4998990;28;20175;-93
2023/04/28 07:17:45;;;;;;;5.43;4.93;;;15.00;99.90;;;;;;4998811;28;20294;-92
2023/04/28 07:20:13;;;;;;;5.13;4.63;;;15.10;99.90;;;;;;5009275;28;20183;-92
2023/04/28 07:22:39;;;;;;;6.13;5.13;;;15.10;99.90;;;;;;5015082;28;20183;-93
2023/04/28 07:25:05;;;;;;;5.20;4.53;;;15.10;99.90;;;;;;5003998;28;20182;-91
2023/04/28 07:27:31;;;;;;;5.67;5.07;;;15.00;99.90;;;;;;5003150;28;20186;-93
2023/04/28 07:29:57;;;;;;;5.20;4.70;;;15.10;99.90;;;;;;5008603;28;20176;-92
2023/04/28 07:32:25;;;;;;;5.60;5.00;;;15.10;99.90;;;;;;5009510;28;20695;-92
2023/04/28 07:34:55;;;;;;;4.80;4.03;;;15.20;99.90;;;;;;5007787;28;20203;-93
2023/04/28 07:37:25;;;;;;;4.43;3.93;;;15.20;99.90;;;;;;5000487;28;20577;-92
2023/04/28 07:39:54;;;;;;;5.57;4.10;;;15.30;99.90;;;;;;5000644;28;20254;-93
2023/04/28 07:42:20;;;;;;;4.73;4.30;;;15.50;99.90;;;;;;5002662;28;20246;-92
2023/04/28 07:44:47;;;;;;;4.27;3.87;;;15.70;99.90;;;;;;5018789;28;20194;-92
2023/04/28 07:47:17;;;;;;;4.00;3.50;;;15.90;99.90;;;;;;5016078;28;20203;-92
2023/04/28 07:49:46;;;;;;;3.97;2.90;;;16.10;99.90;;;;;;5007231;28;20620;-93
2023/04/28 07:52:11;;;;;;;4.10;3.10;;;16.10;99.90;;;;;;5001905;28;20174;-92
2023/04/28 07:54:38;;;;;;;2.57;2.20;;;16.20;99.90;;;;;;5000115;28;20250;-94
2023/04/28 07:57:05;;;;;;;2.97;2.47;;;16.20;99.90;;;;;;5000252;28;20213;-92
2023/04/28 07:59:34;;;;;;;2.60;2.10;;;16.40;99.90;;;;;;5005788;28;20205;-91
2023/04/28 08:02:12;;;;;;;2.43;2.20;;;16.30;99.90;;;;;;5016102;28;20171;-93
2023/04/28 08:04:38;;;;;;;2.87;1.90;;;16.30;99.90;;;;;;5001496;28;20166;-94
2023/04/28 08:07:04;;;;;;;2.47;1.87;;;16.20;99.90;;;;;;5007778;28;20159;-92
2023/04/28 08:09:30;;;;;;;2.47;1.60;;;16.30;99.90;;;;;;5018039;28;20159;-93
2023/04/28 08:11:57;;;;;;;4.63;1.80;;;16.10;99.90;;;;;;5016702;28;20214;-90
2023/04/28 08:14:26;;;;;;;1.70;1.40;;;16.10;99.90;;;;;;4997479;28;20179;-93
2023/04/28 08:16:55;;;;;;;2.07;1.33;;;16.10;99.90;;;;;;5002548;28;20207;-92
2023/04/28 08:19:28;;;;;;;1.57;1.20;;;16.10;99.90;;;;;;5006004;28;20175;-92
2023/04/28 08:21:58;;;;;;;2.00;1.50;;;16.00;99.90;;;;;;5016659;28;20230;-90
2023/04/28 08:24:29;;;;;;;3.07;1.40;;;16.00;99.90;;;;;;5002207;28;20207;-90
2023/04/28 08:26:54;;;;;;;2.33;1.87;;;16.20;99.90;;;;;;5016946;28;20184;-88
2023/04/28 08:29:24;;;;;;;2.20;1.37;;;16.20;99.90;;;;;;5017670;28;20175;-89
2023/04/28 08:31:53;;;;;;;3.57;2.00;;;16.10;99.90;;;;;;5004798;28;20233;-93
2023/04/28 08:34:19;;;;;;;2.37;1.67;;;16.20;99.90;;;;;;5000552;28;20253;-92
2023/04/28 08:36:48;;;;;;;1.27;0.97;;;16.30;99.90;;;;;;4998867;28;20298;-93
2023/04/28 08:39:16;;;;;;;0.97;0.90;;;16.30;99.90;;;;;;4998212;28;20175;-92
2023/04/28 08:41:42;;;;;;;0.90;0.90;;;16.00;99.90;;;;;;4998674;28;20167;-93
2023/04/28 08:44:09;;;;;;;1.80;0.77;;;16.10;99.90;;;;;;5006759;28;20187;-92
2023/04/28 08:46:36;;;;;;;1.80;0.80;;;16.20;99.90;;;;;;5015002;28;20178;-91
2023/04/28 08:49:05;;;;;;;0.80;0.67;;;16.20;99.90;;;;;;5010271;28;20177;-91
2023/04/28 08:51:37;;;;;;;2.40;0.97;;;16.20;99.90;;;;;;5014600;28;20190;-89
2023/04/28 08:54:07;;;;;;;2.00;0.97;;;16.10;99.90;;;;;;5009654;28;20191;-92
2023/04/28 08:56:38;;;;;;;1.13;0.83;;;16.20;99.90;;;;;;4979472;28;20593;-92
2023/04/28 08:59:06;;;;;;;1.03;0.83;;;16.30;99.90;;;;;;4978414;28;20218;-92
2023/04/28 09:01:32;;;;;;;1.47;0.80;;;16.40;99.90;;;;;;4979082;28;20203;-92
2023/04/28 09:04:01;;;;;;;1.43;0.50;;;16.30;99.90;;;;;;4978607;28;20179;-93
2023/04/28 09:06:35;;;;;;;1.53;0.60;;;16.30;99.90;;;;;;4978085;28;20177;-93
2023/04/28 09:09:24;;;;;;;3.43;0.90;;;16.40;99.90;;;;;;4977942;28;20172;-92
2023/04/28 09:11:58;;;;;;;1.73;0.77;;;16.50;99.90;;;;;;4978100;28;20165;-93
2023/04/28 09:14:26;;;;;;;1.17;0.60;;;16.50;99.90;;;;;;4977919;28;20530;-92
2023/04/28 09:16:53;;;;;;;2.27;0.70;;;16.50;99.90;;;;;;4977168;28;20207;-91
2023/04/28 09:19:19;;;;;;;0.87;0.50;;;16.60;99.90;;;;;;4997620;28;20171;-91
2023/04/28 09:21:48;;;;;;;0.60;0.60;;;16.70;99.90;;;;;;4984648;28;20196;-91
2023/04/28 09:24:46;;;;;;;1.23;0.80;;;16.70;99.90;;;;;;4986618;28;20182;-95
2023/04/28 09:27:14;;;;;;;1.00;0.70;;;16.90;96.60;;;;;;4998275;28;20270;-93
2023/04/28 09:29:52;;;;;;;3.03;0.90;;;16.90;96.80;;;;;;4997673;28;20695;-92
2023/04/28 09:32:21;;;;;;;0.80;0.70;;;16.90;97.80;;;;;;5010559;28;20163;-91
2023/04/28 09:34:48;;;;;;;1.27;0.80;;;16.90;97.70;;;;;;5013178;28;20191;-93
2023/04/28 09:37:22;;;;;;;3.07;1.23;;;17.00;97.80;;;;;;5011495;28;20207;-92
2023/04/28 09:39:54;;;;;;;2.20;1.37;;;16.90;96.80;;;;;;4991282;28;20182;-93
2023/04/28 09:42:42;;;;;;;1.80;1.47;;;16.90;97.90;;;;;;4998525;28;20179;-93
2023/04/28 09:45:13;;;;;;;1.80;1.23;;;17.00;94.90;;;;;;4998460;28;20183;-93
2023/04/28 09:47:41;;;;;;;2.40;1.17;;;17.00;93.10;;;;;;4996434;28;20742;-92
2023/04/28 09:50:11;;;;;;;2.10;1.60;;;17.00;94.30;;;;;;4998760;28;20198;-93
2023/04/28 09:52:37;;;;;;;2.17;1.70;;;17.20;92.80;;;;;;4997400;28;20237;-93
2023/04/28 09:55:07;;;;;;;2.27;1.90;;;17.30;92.20;;;;;;5014113;28;20181;-92
2023/04/28 09:57:35;;;;;;;2.70;2.20;;;17.50;89.00;;;;;;5017460;28;20197;-91
2023/04/28 10:00:05;;;;;;;3.43;1.90;;;17.60;87.10;;;;;;5013051;28;20182;-92
2023/04/28 10:02:37;;;;;;;3.90;2.30;;;17.70;76.90;;;;;;5014156;28;20170;-93
2023/04/28 10:05:23;;;;;;;3.43;2.53;;;17.90;77.80;;;;;;4998789;28;20190;-93
2023/04/28 10:07:54;;;;;;;4.43;4.10;;;18.00;61.40;;;;;;5003441;28;20233;-92
2023/04/28 10:10:20;;;;;;;1.20;1.10;;;17.80;56.80;;;;;;4989699;28;20178;-92
2023/04/28 10:12:46;;;;;;;6.20;1.60;;;17.70;54.80;;;;;;5013285;28;20244;-91
2023/04/28 10:15:12;;;;;;;4.90;3.67;;;17.60;55.60;;;;;;5007833;28;20169;-90
2023/04/28 10:17:49;;;;;;;2.10;0.63;;;17.60;59.50;;;;;;5016514;28;20203;-90
2023/04/28 10:20:20;;;;;;;0.97;0.73;;;17.60;59.80;;;;;;5011348;28;20214;-91
2023/04/28 10:23:23;;;;;;;0.97;0.50;;;17.60;59.70;;;;;;5017249;28;20159;-92
2023/04/28 10:26:13;;;;;;;1.20;0.70;;;17.40;66.30;;;;;;5017358;28;20191;-92
2023/04/28 10:28:51;;;;;;;0.90;0.67;;;17.30;69.60;;;;;;5007702;28;20617;-92
2023/04/28 10:31:21;;;;;;;1.17;0.70;;;17.10;74.90;;;;;;5012351;28;20200;-92
2023/04/28 10:33:48;;;;;;;0.50;0.50;;;17.00;75.70;;;;;;4999516;28;20203;-93
2023/04/28 10:36:49;;;;;;;0.70;0.63;;;16.90;76.40;;;;;;4999928;28;20263;-91
2023/04/28 10:39:16;;;;;;;2.70;0.83;;;16.70;77.50;;;;;;5015223;28;20186;-92
2023/04/28 10:41:46;;;;;;;2.37;1.43;;;16.70;81.40;;;;;;5001796;28;20689;-93
2023/04/28 10:44:27;;;;;;;2.67;2.10;;;16.80;81.50;;;;;;4997676;28;20230;-92
2023/04/28 10:47:05;;;;;;;2.33;1.63;;;16.90;77.50;;;;;;4997437;28;20183;-93
2023/04/28 10:49:56;;;;;;;2.50;1.10;;;16.90;75.50;;;;;;4999782;28;20179;-92
2023/04/28 10:52:37;;;;;;;1.70;1.57;;;17.00;75.30;;;;;;5000444;28;20189;-93
2023/04/28 10:55:36;;;;;;;2.10;1.50;;;16.90;75.60;;;;;;5003368;28;20204;-92
2023/04/28 10:58:26;;;;;;;2.43;1.37;;;16.80;77.00;;;;;;5016673;28;20213;-93
2023/04/28 11:00:52;;;;;;;2.80;1.90;;;16.80;74.90;;;;;;5016106;28;20171;-91
2023/04/28 11:03:36;;;;;;;3.47;2.80;;;16.80;78.10;;;;;;5017315;28;20179;-92
2023/04/28 11:06:23;;;;;;;3.93;2.73;;;16.70;77.50;;;;;;5010301;28;20171;-92
2023/04/28 11:08:52;;;;;;;8.93;2.33;;;16.70;81.30;;;;;;5010874;28;20169;-92
2023/04/28 11:11:35;;;;;;;4.33;1.60;;;16.70;81.30;;;;;;5002952;28;20205;-91
2023/04/28 11:14:17;;;;;;;2.57;1.43;;;16.80;80.70;;;;;;5002542;28;20545;-93
2023/04/28 11:17:02;;;;;;;3.10;1.80;;;16.70;82.70;;;;;;5001895;28;20195;-91
2023/04/28 11:19:37;;;;;;;2.50;1.50;;;16.70;82.80;;;;;;5002229;28;20190;-92
2023/04/28 11:22:17;;;;;;;2.97;1.50;;;16.70;81.90;;;;;;5004376;28;20198;-92
2023/04/28 11:24:57;;;;;;;3.03;1.30;;;16.70;82.60;;;;;;5011017;28;20167;-91
2023/04/28 11:27:30;;;;;;;2.13;1.23;;;16.50;82.40;;;;;;5015448;28;20169;-90
2023/04/28 11:29:56;;;;;;;1.13;1.00;;;16.30;88.80;;;;;;5018702;28;20167;-91
2023/04/28 11:32:30;;;;;;;1.37;1.20;;;16.20;90.70;;;;;;5002660;28;20186;-92
2023/04/28 11:35:03;;;;;;;1.83;1.13;;;16.10;91.80;;;;;;5009641;28;20202;-92
2023/04/28 11:37:29;;;;;;;5.43;1.40;;;16.00;92.90;;;;;;5002439;28;20678;-93
2023/04/28 11:39:56;;;;;;;2.30;1.43;;;16.10;92.70;;;;;;4983653;28;20234;-91
2023/04/28 11:42:24;;;;;;;2.20;1.40;;;16.00;93.10;;;;;;5000622;28;20186;-91
2023/04/28 11:44:52;;;;;;;3.27;1.60;;;16.00;93.40;;;;;;4999857;28;20673;-92
2023/04/28 11:47:33;;;;;;;2.07;1.40;;;15.90;92.40;;;;;;5004784;28;20167;-92
2023/04/28 11:50:02;;;;;;;3.33;1.40;;;15.90;92.00;;;;;;5007068;28;20214;-91
2023/04/28 11:52:28;;;;;;;3.13;1.73;;;15.90;92.40;;;;;;5004646;28;20205;-93
2023/04/28 11:54:57;;;;;;;5.53;1.87;;;16.00;91.90;;;;;;5002207;28;20222;-91
2023/04/28 11:57:25;;;;;;;3.47;2.00;;;15.90;91.90;;;;;;5017129;28;20203;-89
2023/04/28 12:00:20;;;;;;;3.50;2.10;;;15.80;93.00;;;;;;5014359;28;20170;-90
2023/04/28 12:02:51;;;;;;;3.13;1.90;;;15.80;92.70;;;;;;5000386;28;20152;-93
2023/04/28 12:05:19;;;;;;;2.80;2.10;;;15.90;90.20;;;;;;5018524;28;20186;-92
2023/04/28 12:07:46;;;;;;;2.80;2.07;;;15.50;91.60;;;;;;5018620;28;20229;-91
2023/04/28 12:10:17;;;;;;;3.93;2.30;;;15.70;90.80;;;;;;5009705;28;20179;-92
2023/04/28 12:12:44;;;;;;;2.43;1.50;;;15.80;91.00;;;;;;5004521;28;20167;-93
2023/04/28 12:15:10;;;;;;;2.30;1.27;;;15.80;84.10;;;;;;5010026;28;20281;-92
2023/04/28 12:17:41;;;;;;;2.30;1.10;;;15.90;78.40;;;;;;5017984;28;20198;-92
2023/04/28 12:20:11;;;;;;;2.10;1.30;;;15.80;77.00;;;;;;5011441;28;20545;-92
2023/04/28 12:22:52;;;;;;;2.60;1.13;;;15.80;73.90;;;;;;5002767;28;20209;-91
2023/04/28 12:25:21;;;;;;;2.57;1.53;;;15.80;71.40;;;;;;5008854;28;20178;-92
2023/04/28 12:28:10;;;;;;;2.53;1.30;;;15.80;73.90;;;;;;5012183;28;20222;-92
2023/04/28 12:30:39;;;;;;;3.03;1.20;;;15.90;71.70;;;;;;5012132;28;20206;-90
2023/04/28 12:33:04;;;;;;;2.13;1.20;;;15.90;69.40;;;;;;5018640;28;20202;-92
2023/04/28 12:35:32;;;;;;;2.20;1.73;;;15.90;70.40;;;;;;5017768;28;20206;-92
2023/04/28 12:38:00;;;;;;;1.70;0.90;;;16.00;64.20;;;;;;5016190;28;20198;-92
2023/04/28 12:40:26;;;;;;;1.53;1.00;;;16.00;64.00;;;;;;5012503;28;20186;-91
2023/04/28 12:42:52;;;;;;;3.07;1.10;;;16.00;64.00;;;;;;5010711;28;20221;-91
2023/04/28 12:45:25;;;;;;;1.73;0.97;;;15.90;62.10;;;;;;5006635;28;20191;-94
2023/04/28 12:47:52;;;;;;;2.63;1.40;;;15.80;66.00;;;;;;4998579;28;20175;-92
2023/04/28 12:50:24;;;;;;;2.20;1.33;;;15.80;63.80;;;;;;4998197;28;20690;-93
2023/04/28 12:52:50;;;;;;;2.70;1.43;;;15.80;65.90;;;;;;4997595;28;20180;-93
2023/04/28 12:55:16;;;;;;;2.53;1.47;;;15.80;63.50;;;;;;4996902;28;20183;-93
2023/04/28 12:57:41;;;;;;;2.27;1.50;;;15.80;59.70;;;;;;4996666;28;20370;-93
2023/04/28 13:00:08;;;;;;;3.40;1.97;;;15.80;59.00;;;;;;4996943;28;20198;-93